sensor_id;sensor_type;location;lat;lon;timestamp;temperature;humidity
52034;DHT22;38045;52.988;6.536;2023-05-07T00:02:21;13.40;99.90
52034;DHT22;38045;52.988;6.536;2023-05-07T00:04:46;13.40;99.90
52034;DHT22;38045;52.988;6.536;2023-05-07T00:07:12;13.40;99.90
52034;DHT22;38045;52.988;6.536;2023-05-07T00:09:38;13.30;99.90
52034;DHT22;38045;52.988;6.536;2023-05-07T00:12:03;13.30;99.90
52034;DHT22;38045;52.988;6.536;2023-05-07T00:14:29;13.20;99.90
52034;DHT22;38045;52.988;6.536;2023-05-07T00:16:55;13.20;99.90
52034;DHT22;38045;52.988;6.536;2023-05-07T00:19:20;13.20;99.90
52034;DHT22;38045;52.988;6.536;2023-05-07T00:21:46;13.20;99.90
52034;DHT22;38045;52.988;6.536;2023-05-07T00:24:12;13.20;99.90
52034;DHT22;38045;52.988;6.536;2023-05-07T00:26:37;13.20;99.90
52034;DHT22;38045;52.988;6.536;2023-05-07T00:29:03;13.10;99.90
52034;DHT22;38045;52.988;6.536;2023-05-07T00:31:29;13.20;99.90
52034;DHT22;38045;52.988;6.536;2023-05-07T00:33:54;13.20;99.90
52034;DHT22;38045;52.988;6.536;2023-05-07T00:36:20;13.10;99.90
52034;DHT22;38045;52.988;6.536;2023-05-07T00:38:45;13.10;99.90
52034;DHT22;38045;52.988;6.536;2023-05-07T00:41:11;13.10;99.90
52034;DHT22;38045;52.988;6.536;2023-05-07T00:43:37;13.00;99.90
52034;DHT22;38045;52.988;6.536;2023-05-07T00:46:03;13.00;99.90
52034;DHT22;38045;52.988;6.536;2023-05-07T00:48:29;13.00;99.90
52034;DHT22;38045;52.988;6.536;2023-05-07T00:50:56;12.90;99.90
52034;DHT22;38045;52.988;6.536;2023-05-07T00:53:22;12.90;99.90
52034;DHT22;38045;52.988;6.536;2023-05-07T00:55:48;12.90;99.90
52034;DHT22;38045;52.988;6.536;2023-05-07T00:58:13;12.90;99.90
52034;DHT22;38045;52.988;6.536;2023-05-07T01:00:39;12.90;99.90
52034;DHT22;38045;52.988;6.536;2023-05-07T01:03:06;12.80;99.90
52034;DHT22;38045;52.988;6.536;2023-05-07T01:05:31;12.80;99.90
52034;DHT22;38045;52.988;6.536;2023-05-07T01:07:58;12.80;99.90
52034;DHT22;38045;52.988;6.536;2023-05-07T01:10:24;12.80;99.90
52034;DHT22;38045;52.988;6.536;2023-05-07T01:12:50;12.70;99.90
52034;DHT22;38045;52.988;6.536;2023-05-07T01:15:16;12.70;99.90
52034;DHT22;38045;52.988;6.536;2023-05-07T01:17:43;12.70;99.90
52034;DHT22;38045;52.988;6.536;2023-05-07T01:20:09;12.60;99.90
52034;DHT22;38045;52.988;6.536;2023-05-07T01:22:39;12.60;99.90
52034;DHT22;38045;52.988;6.536;2023-05-07T01:25:06;12.50;99.90
52034;DHT22;38045;52.988;6.536;2023-05-07T01:27:33;12.50;99.90
52034;DHT22;38045;52.988;6.536;2023-05-07T01:30:01;12.50;99.90
52034;DHT22;38045;52.988;6.536;2023-05-07T01:32:41;12.40;99.90
52034;DHT22;38045;52.988;6.536;2023-05-07T01:35:11;12.40;99.90
52034;DHT22;38045;52.988;6.536;2023-05-07T01:37:38;12.30;99.90
52034;DHT22;38045;52.988;6.536;2023-05-07T01:40:05;12.30;99.90
52034;DHT22;38045;52.988;6.536;2023-05-07T01:42:32;12.30;99.90
52034;DHT22;38045;52.988;6.536;2023-05-07T01:44:58;12.30;99.90
52034;DHT22;38045;52.988;6.536;2023-05-07T01:47:25;12.20;99.90
52034;DHT22;38045;52.988;6.536;2023-05-07T01:49:51;12.20;99.90
52034;DHT22;38045;52.988;6.536;2023-05-07T01:52:17;12.20;99.90
52034;DHT22;38045;52.988;6.536;2023-05-07T01:54:42;12.20;99.90
52034;DHT22;38045;52.988;6.536;2023-05-07T01:57:08;12.20;99.90
52034;DHT22;38045;52.988;6.536;2023-05-07T01:59:34;12.20;99.90
52034;DHT22;38045;52.988;6.536;2023-05-07T02:01:59;12.10;99.90
52034;DHT22;38045;52.988;6.536;2023-05-07T02:04:26;12.20;99.90
52034;DHT22;38045;52.988;6.536;2023-05-07T02:06:51;12.10;99.90
52034;DHT22;38045;52.988;6.536;2023-05-07T02:09:18;12.10;99.90
52034;DHT22;38045;52.988;6.536;2023-05-07T02:11:44;12.10;99.90
52034;DHT22;38045;52.988;6.536;2023-05-07T02:14:09;12.00;99.90
52034;DHT22;38045;52.988;6.536;2023-05-07T02:16:35;12.00;99.90
52034;DHT22;38045;52.988;6.536;2023-05-07T02:19:01;11.90;99.90
52034;DHT22;38045;52.988;6.536;2023-05-07T02:21:26;11.90;99.90
52034;DHT22;38045;52.988;6.536;2023-05-07T02:23:52;11.80;99.90
52034;DHT22;38045;52.988;6.536;2023-05-07T02:26:18;11.80;99.90
52034;DHT22;38045;52.988;6.536;2023-05-07T02:28:43;11.70;99.90
52034;DHT22;38045;52.988;6.536;2023-05-07T02:31:09;11.70;99.90
52034;DHT22;38045;52.988;6.536;2023-05-07T02:33:35;11.70;99.90
52034;DHT22;38045;52.988;6.536;2023-05-07T02:36:11;11.60;99.90
52034;DHT22;38045;52.988;6.536;2023-05-07T02:38:37;11.70;99.90
52034;DHT22;38045;52.988;6.536;2023-05-07T02:41:03;11.70;99.90
52034;DHT22;38045;52.988;6.536;2023-05-07T02:43:29;11.70;99.90
52034;DHT22;38045;52.988;6.536;2023-05-07T02:46:05;11.60;99.90
52034;DHT22;38045;52.988;6.536;2023-05-07T02:48:31;11.70;99.90
52034;DHT22;38045;52.988;6.536;2023-05-07T02:50:57;11.70;99.90
52034;DHT22;38045;52.988;6.536;2023-05-07T02:53:23;11.60;99.90
52034;DHT22;38045;52.988;6.536;2023-05-07T02:55:52;11.60;99.90
52034;DHT22;38045;52.988;6.536;2023-05-07T02:58:18;11.60;99.90
52034;DHT22;38045;52.988;6.536;2023-05-07T03:00:43;11.60;99.90
52034;DHT22;38045;52.988;6.536;2023-05-07T03:03:09;11.60;99.90
52034;DHT22;38045;52.988;6.536;2023-05-07T03:05:34;11.60;99.90
52034;DHT22;38045;52.988;6.536;2023-05-07T03:08:00;11.60;99.90
52034;DHT22;38045;52.988;6.536;2023-05-07T03:10:25;11.60;99.90
52034;DHT22;38045;52.988;6.536;2023-05-07T03:12:51;11.50;99.90
52034;DHT22;38045;52.988;6.536;2023-05-07T03:15:17;11.50;99.90
52034;DHT22;38045;52.988;6.536;2023-05-07T03:17:42;11.40;99.90
52034;DHT22;38045;52.988;6.536;2023-05-07T03:20:08;11.40;99.90
52034;DHT22;38045;52.988;6.536;2023-05-07T03:22:34;11.40;99.90
52034;DHT22;38045;52.988;6.536;2023-05-07T03:25:00;11.30;99.90
52034;DHT22;38045;52.988;6.536;2023-05-07T03:27:26;11.30;99.90
52034;DHT22;38045;52.988;6.536;2023-05-07T03:29:51;11.30;99.90
52034;DHT22;38045;52.988;6.536;2023-05-07T03:32:17;11.30;99.90
52034;DHT22;38045;52.988;6.536;2023-05-07T03:34:42;11.30;99.90
52034;DHT22;38045;52.988;6.536;2023-05-07T03:37:08;11.30;99.90
52034;DHT22;38045;52.988;6.536;2023-05-07T03:39:34;11.20;99.90
52034;DHT22;38045;52.988;6.536;2023-05-07T03:41:59;11.20;99.90
52034;DHT22;38045;52.988;6.536;2023-05-07T03:44:26;11.30;99.90
52034;DHT22;38045;52.988;6.536;2023-05-07T03:46:51;11.30;99.90
52034;DHT22;38045;52.988;6.536;2023-05-07T03:49:17;11.30;99.90
52034;DHT22;38045;52.988;6.536;2023-05-07T03:51:42;11.20;99.90
52034;DHT22;38045;52.988;6.536;2023-05-07T03:54:08;11.20;99.90
52034;DHT22;38045;52.988;6.536;2023-05-07T03:56:34;11.20;99.90
52034;DHT22;38045;52.988;6.536;2023-05-07T03:59:00;11.20;99.90
52034;DHT22;38045;52.988;6.536;2023-05-07T04:01:26;11.20;99.90
52034;DHT22;38045;52.988;6.536;2023-05-07T04:03:52;11.20;99.90
52034;DHT22;38045;52.988;6.536;2023-05-07T04:06:17;11.20;99.90
52034;DHT22;38045;52.988;6.536;2023-05-07T04:08:43;11.10;99.90
52034;DHT22;38045;52.988;6.536;2023-05-07T04:11:09;11.20;99.90
52034;DHT22;38045;52.988;6.536;2023-05-07T04:13:34;11.10;99.90
52034;DHT22;38045;52.988;6.536;2023-05-07T04:16:02;11.20;99.90
52034;DHT22;38045;52.988;6.536;2023-05-07T04:18:28;11.10;99.90
52034;DHT22;38045;52.988;6.536;2023-05-07T04:20:54;11.10;99.90
52034;DHT22;38045;52.988;6.536;2023-05-07T04:23:19;11.10;99.90
52034;DHT22;38045;52.988;6.536;2023-05-07T04:25:45;11.10;99.90
52034;DHT22;38045;52.988;6.536;2023-05-07T04:28:11;11.10;99.90
52034;DHT22;38045;52.988;6.536;2023-05-07T04:30:37;11.10;99.90
52034;DHT22;38045;52.988;6.536;2023-05-07T04:33:02;11.10;99.90
52034;DHT22;38045;52.988;6.536;2023-05-07T04:35:28;11.10;99.90
52034;DHT22;38045;52.988;6.536;2023-05-07T04:37:54;11.00;99.90
52034;DHT22;38045;52.988;6.536;2023-05-07T04:40:19;11.10;99.90
52034;DHT22;38045;52.988;6.536;2023-05-07T04:42:45;11.00;99.90
52034;DHT22;38045;52.988;6.536;2023-05-07T04:45:11;11.00;99.90
52034;DHT22;38045;52.988;6.536;2023-05-07T04:47:38;11.00;99.90
52034;DHT22;38045;52.988;6.536;2023-05-07T04:50:04;11.10;99.90
52034;DHT22;38045;52.988;6.536;2023-05-07T04:52:30;11.10;99.90
52034;DHT22;38045;52.988;6.536;2023-05-07T04:54:55;11.10;99.90
52034;DHT22;38045;52.988;6.536;2023-05-07T04:57:21;11.10;99.90
52034;DHT22;38045;52.988;6.536;2023-05-07T04:59:46;11.10;99.90
52034;DHT22;38045;52.988;6.536;2023-05-07T05:02:12;11.10;99.90
52034;DHT22;38045;52.988;6.536;2023-05-07T05:04:37;11.10;99.90
52034;DHT22;38045;52.988;6.536;2023-05-07T05:07:03;11.10;99.90
52034;DHT22;38045;52.988;6.536;2023-05-07T05:09:29;11.10;99.90
52034;DHT22;38045;52.988;6.536;2023-05-07T05:11:55;11.00;99.90
52034;DHT22;38045;52.988;6.536;2023-05-07T05:14:21;11.10;99.90
52034;DHT22;38045;52.988;6.536;2023-05-07T05:16:46;11.10;99.90
52034;DHT22;38045;52.988;6.536;2023-05-07T05:19:12;11.10;99.90
52034;DHT22;38045;52.988;6.536;2023-05-07T05:21:37;11.10;99.90
52034;DHT22;38045;52.988;6.536;2023-05-07T05:24:03;11.20;99.90
52034;DHT22;38045;52.988;6.536;2023-05-07T05:26:29;11.20;99.90
52034;DHT22;38045;52.988;6.536;2023-05-07T05:28:55;11.20;99.90
52034;DHT22;38045;52.988;6.536;2023-05-07T05:31:20;11.20;99.90
52034;DHT22;38045;52.988;6.536;2023-05-07T05:33:46;11.20;99.90
52034;DHT22;38045;52.988;6.536;2023-05-07T05:36:12;11.20;99.90
52034;DHT22;38045;52.988;6.536;2023-05-07T05:38:39;11.20;99.90
52034;DHT22;38045;52.988;6.536;2023-05-07T05:41:04;11.20;99.90
52034;DHT22;38045;52.988;6.536;2023-05-07T05:43:30;11.20;99.90
52034;DHT22;38045;52.988;6.536;2023-05-07T05:45:57;11.20;99.90
52034;DHT22;38045;52.988;6.536;2023-05-07T05:48:23;11.20;99.90
52034;DHT22;38045;52.988;6.536;2023-05-07T05:50:49;11.20;99.90
52034;DHT22;38045;52.988;6.536;2023-05-07T05:53:14;11.20;99.90
52034;DHT22;38045;52.988;6.536;2023-05-07T05:55:41;11.20;99.90
52034;DHT22;38045;52.988;6.536;2023-05-07T05:58:07;11.20;99.90
52034;DHT22;38045;52.988;6.536;2023-05-07T06:00:33;11.20;99.90
52034;DHT22;38045;52.988;6.536;2023-05-07T06:02:58;11.20;99.90
52034;DHT22;38045;52.988;6.536;2023-05-07T06:05:24;11.30;99.90
52034;DHT22;38045;52.988;6.536;2023-05-07T06:07:49;11.30;99.90
52034;DHT22;38045;52.988;6.536;2023-05-07T06:10:15;11.30;99.90
52034;DHT22;38045;52.988;6.536;2023-05-07T06:12:40;11.30;99.90
52034;DHT22;38045;52.988;6.536;2023-05-07T06:15:06;11.30;99.90
52034;DHT22;38045;52.988;6.536;2023-05-07T06:17:32;11.30;99.90
52034;DHT22;38045;52.988;6.536;2023-05-07T06:19:57;11.30;99.90
52034;DHT22;38045;52.988;6.536;2023-05-07T06:22:23;11.30;99.90
52034;DHT22;38045;52.988;6.536;2023-05-07T06:24:48;11.30;99.90
52034;DHT22;38045;52.988;6.536;2023-05-07T06:27:14;11.30;99.90
52034;DHT22;38045;52.988;6.536;2023-05-07T06:29:40;11.30;99.90
52034;DHT22;38045;52.988;6.536;2023-05-07T06:32:12;11.40;99.90
52034;DHT22;38045;52.988;6.536;2023-05-07T06:34:39;11.40;99.90
52034;DHT22;38045;52.988;6.536;2023-05-07T06:37:05;11.50;99.90
52034;DHT22;38045;52.988;6.536;2023-05-07T06:39:31;11.50;99.90
52034;DHT22;38045;52.988;6.536;2023-05-07T06:41:57;11.50;99.90
52034;DHT22;38045;52.988;6.536;2023-05-07T06:44:23;11.50;99.90
52034;DHT22;38045;52.988;6.536;2023-05-07T06:46:48;11.50;99.90
52034;DHT22;38045;52.988;6.536;2023-05-07T06:49:14;11.50;99.90
52034;DHT22;38045;52.988;6.536;2023-05-07T06:51:40;11.60;99.90
52034;DHT22;38045;52.988;6.536;2023-05-07T06:54:06;11.60;99.90
52034;DHT22;38045;52.988;6.536;2023-05-07T06:56:32;11.60;99.90
52034;DHT22;38045;52.988;6.536;2023-05-07T06:58:59;11.60;99.90
52034;DHT22;38045;52.988;6.536;2023-05-07T07:01:25;11.60;99.90
52034;DHT22;38045;52.988;6.536;2023-05-07T07:03:51;11.70;99.90
52034;DHT22;38045;52.988;6.536;2023-05-07T07:06:17;11.70;99.90
52034;DHT22;38045;52.988;6.536;2023-05-07T07:08:43;11.80;99.90
52034;DHT22;38045;52.988;6.536;2023-05-07T07:11:09;11.80;99.90
52034;DHT22;38045;52.988;6.536;2023-05-07T07:13:35;11.80;99.90
52034;DHT22;38045;52.988;6.536;2023-05-07T07:16:01;11.80;99.90
52034;DHT22;38045;52.988;6.536;2023-05-07T07:18:26;11.80;99.90
52034;DHT22;38045;52.988;6.536;2023-05-07T07:20:52;11.90;99.90
52034;DHT22;38045;52.988;6.536;2023-05-07T07:23:18;11.90;99.90
52034;DHT22;38045;52.988;6.536;2023-05-07T07:25:44;11.90;99.90
52034;DHT22;38045;52.988;6.536;2023-05-07T07:28:09;12.00;99.90
52034;DHT22;38045;52.988;6.536;2023-05-07T07:30:36;12.00;99.90
52034;DHT22;38045;52.988;6.536;2023-05-07T07:33:02;12.10;99.90
52034;DHT22;38045;52.988;6.536;2023-05-07T07:35:34;12.20;99.90
52034;DHT22;38045;52.988;6.536;2023-05-07T07:38:00;12.20;99.90
52034;DHT22;38045;52.988;6.536;2023-05-07T07:40:27;12.30;99.90
52034;DHT22;38045;52.988;6.536;2023-05-07T07:42:53;12.30;99.90
52034;DHT22;38045;52.988;6.536;2023-05-07T07:45:20;12.30;99.90
52034;DHT22;38045;52.988;6.536;2023-05-07T07:47:45;12.30;99.90
52034;DHT22;38045;52.988;6.536;2023-05-07T07:50:11;12.30;99.90
52034;DHT22;38045;52.988;6.536;2023-05-07T07:52:36;12.30;99.90
52034;DHT22;38045;52.988;6.536;2023-05-07T07:55:03;12.40;99.90
52034;DHT22;38045;52.988;6.536;2023-05-07T07:57:28;12.40;99.90
52034;DHT22;38045;52.988;6.536;2023-05-07T07:59:54;12.50;99.90
52034;DHT22;38045;52.988;6.536;2023-05-07T08:02:19;12.50;99.90
52034;DHT22;38045;52.988;6.536;2023-05-07T08:04:45;12.50;99.90
52034;DHT22;38045;52.988;6.536;2023-05-07T08:07:11;12.60;99.90
52034;DHT22;38045;52.988;6.536;2023-05-07T08:09:38;12.60;99.90
52034;DHT22;38045;52.988;6.536;2023-05-07T08:12:05;12.60;99.90
52034;DHT22;38045;52.988;6.536;2023-05-07T08:14:30;12.70;99.90
52034;DHT22;38045;52.988;6.536;2023-05-07T08:16:56;12.90;99.90
52034;DHT22;38045;52.988;6.536;2023-05-07T08:19:22;12.90;99.90
52034;DHT22;38045;52.988;6.536;2023-05-07T08:21:48;13.10;99.90
52034;DHT22;38045;52.988;6.536;2023-05-07T08:24:14;13.10;99.90
52034;DHT22;38045;52.988;6.536;2023-05-07T08:26:40;13.20;99.90
52034;DHT22;38045;52.988;6.536;2023-05-07T08:29:06;13.30;99.90
52034;DHT22;38045;52.988;6.536;2023-05-07T08:31:32;13.30;99.90
52034;DHT22;38045;52.988;6.536;2023-05-07T08:33:58;13.40;99.90
52034;DHT22;38045;52.988;6.536;2023-05-07T08:36:25;13.50;99.90
52034;DHT22;38045;52.988;6.536;2023-05-07T08:38:51;13.50;99.90
52034;DHT22;38045;52.988;6.536;2023-05-07T08:41:17;13.70;99.90
52034;DHT22;38045;52.988;6.536;2023-05-07T08:43:48;13.70;99.90
52034;DHT22;38045;52.988;6.536;2023-05-07T08:46:18;13.80;99.90
52034;DHT22;38045;52.988;6.536;2023-05-07T08:48:44;13.60;99.90
52034;DHT22;38045;52.988;6.536;2023-05-07T08:51:14;13.60;99.90
52034;DHT22;38045;52.988;6.536;2023-05-07T08:53:41;13.70;99.90
52034;DHT22;38045;52.988;6.536;2023-05-07T08:56:08;13.80;99.90
52034;DHT22;38045;52.988;6.536;2023-05-07T08:58:34;13.80;99.90
52034;DHT22;38045;52.988;6.536;2023-05-07T09:01:03;13.90;99.90
52034;DHT22;38045;52.988;6.536;2023-05-07T09:03:31;14.00;99.90
52034;DHT22;38045;52.988;6.536;2023-05-07T09:05:57;14.20;99.90
52034;DHT22;38045;52.988;6.536;2023-05-07T09:08:27;14.30;99.90
52034;DHT22;38045;52.988;6.536;2023-05-07T09:10:53;14.40;99.90
52034;DHT22;38045;52.988;6.536;2023-05-07T09:13:19;14.50;99.90
52034;DHT22;38045;52.988;6.536;2023-05-07T09:15:44;14.70;99.90
52034;DHT22;38045;52.988;6.536;2023-05-07T09:18:10;14.80;99.90
52034;DHT22;38045;52.988;6.536;2023-05-07T09:20:36;14.80;99.90
52034;DHT22;38045;52.988;6.536;2023-05-07T09:23:02;14.90;99.90
52034;DHT22;38045;52.988;6.536;2023-05-07T09:25:35;14.90;99.90
52034;DHT22;38045;52.988;6.536;2023-05-07T09:28:02;15.10;99.90
52034;DHT22;38045;52.988;6.536;2023-05-07T09:30:32;15.20;99.90
52034;DHT22;38045;52.988;6.536;2023-05-07T09:32:59;15.40;99.90
52034;DHT22;38045;52.988;6.536;2023-05-07T09:35:25;15.60;99.90
52034;DHT22;38045;52.988;6.536;2023-05-07T09:37:59;15.50;99.90
52034;DHT22;38045;52.988;6.536;2023-05-07T09:40:29;15.40;99.90
52034;DHT22;38045;52.988;6.536;2023-05-07T09:42:55;15.30;99.90
52034;DHT22;38045;52.988;6.536;2023-05-07T09:45:28;15.40;99.90
52034;DHT22;38045;52.988;6.536;2023-05-07T09:47:55;15.40;99.90
52034;DHT22;38045;52.988;6.536;2023-05-07T09:50:26;15.40;99.90
52034;DHT22;38045;52.988;6.536;2023-05-07T09:52:54;15.50;99.90
52034;DHT22;38045;52.988;6.536;2023-05-07T09:55:20;15.50;99.90
52034;DHT22;38045;52.988;6.536;2023-05-07T09:57:50;15.60;99.90
52034;DHT22;38045;52.988;6.536;2023-05-07T10:00:19;15.80;99.90
52034;DHT22;38045;52.988;6.536;2023-05-07T10:02:49;16.10;99.90
52034;DHT22;38045;52.988;6.536;2023-05-07T10:05:18;16.30;99.90
52034;DHT22;38045;52.988;6.536;2023-05-07T10:07:45;16.30;99.90
52034;DHT22;38045;52.988;6.536;2023-05-07T10:10:11;16.30;99.90
52034;DHT22;38045;52.988;6.536;2023-05-07T10:12:37;16.30;99.90
52034;DHT22;38045;52.988;6.536;2023-05-07T10:15:13;16.40;99.90
52034;DHT22;38045;52.988;6.536;2023-05-07T10:17:40;16.60;99.90
52034;DHT22;38045;52.988;6.536;2023-05-07T10:20:06;16.60;99.90
52034;DHT22;38045;52.988;6.536;2023-05-07T10:22:47;16.60;99.90
52034;DHT22;38045;52.988;6.536;2023-05-07T10:25:28;16.70;99.90
52034;DHT22;38045;52.988;6.536;2023-05-07T10:27:58;16.90;99.90
52034;DHT22;38045;52.988;6.536;2023-05-07T10:30:49;16.90;99.90
52034;DHT22;38045;52.988;6.536;2023-05-07T10:33:22;17.20;99.90
52034;DHT22;38045;52.988;6.536;2023-05-07T10:35:50;17.50;99.90
52034;DHT22;38045;52.988;6.536;2023-05-07T10:38:16;17.90;99.90
52034;DHT22;38045;52.988;6.536;2023-05-07T10:40:42;17.80;99.90
52034;DHT22;38045;52.988;6.536;2023-05-07T10:43:08;17.80;99.90
52034;DHT22;38045;52.988;6.536;2023-05-07T10:45:34;18.00;99.90
52034;DHT22;38045;52.988;6.536;2023-05-07T10:48:13;18.20;99.90
52034;DHT22;38045;52.988;6.536;2023-05-07T10:50:41;18.30;99.90
52034;DHT22;38045;52.988;6.536;2023-05-07T10:55:48;18.50;99.90
52034;DHT22;38045;52.988;6.536;2023-05-07T10:58:32;18.50;99.90
52034;DHT22;38045;52.988;6.536;2023-05-07T11:01:01;18.50;99.90
52034;DHT22;38045;52.988;6.536;2023-05-07T11:03:28;18.50;99.90
52034;DHT22;38045;52.988;6.536;2023-05-07T11:08:57;18.40;99.90
52034;DHT22;38045;52.988;6.536;2023-05-07T11:11:49;18.30;99.90
52034;DHT22;38045;52.988;6.536;2023-05-07T11:14:44;18.30;99.90
52034;DHT22;38045;52.988;6.536;2023-05-07T11:17:11;18.10;99.90
52034;DHT22;38045;52.988;6.536;2023-05-07T11:19:53;18.00;99.90
52034;DHT22;38045;52.988;6.536;2023-05-07T11:25:02;18.30;99.90
52034;DHT22;38045;52.988;6.536;2023-05-07T11:27:28;18.30;99.90
52034;DHT22;38045;52.988;6.536;2023-05-07T11:29:54;18.30;99.90
52034;DHT22;38045;52.988;6.536;2023-05-07T11:32:24;18.40;99.90
52034;DHT22;38045;52.988;6.536;2023-05-07T11:34:58;18.30;99.90
52034;DHT22;38045;52.988;6.536;2023-05-07T11:37:26;18.20;99.90
52034;DHT22;38045;52.988;6.536;2023-05-07T11:40:03;18.30;99.90
52034;DHT22;38045;52.988;6.536;2023-05-07T11:42:31;18.50;99.90
52034;DHT22;38045;52.988;6.536;2023-05-07T11:44:58;18.60;99.90
52034;DHT22;38045;52.988;6.536;2023-05-07T11:47:24;18.60;99.90
52034;DHT22;38045;52.988;6.536;2023-05-07T11:49:54;18.60;99.90
52034;DHT22;38045;52.988;6.536;2023-05-07T11:52:22;18.60;99.90
52034;DHT22;38045;52.988;6.536;2023-05-07T11:54:51;18.70;99.90
52034;DHT22;38045;52.988;6.536;2023-05-07T11:57:16;18.80;99.90
52034;DHT22;38045;52.988;6.536;2023-05-07T11:59:42;18.70;99.90
52034;DHT22;38045;52.988;6.536;2023-05-07T12:02:14;18.60;99.90
52034;DHT22;38045;52.988;6.536;2023-05-07T12:04:41;18.90;99.90
52034;DHT22;38045;52.988;6.536;2023-05-07T12:07:15;19.10;99.90
52034;DHT22;38045;52.988;6.536;2023-05-07T12:09:41;19.50;99.90
52034;DHT22;38045;52.988;6.536;2023-05-07T12:12:07;19.50;99.90
52034;DHT22;38045;52.988;6.536;2023-05-07T12:14:37;19.50;99.90
52034;DHT22;38045;52.988;6.536;2023-05-07T12:17:03;19.50;99.90
52034;DHT22;38045;52.988;6.536;2023-05-07T12:19:30;19.30;99.90
52034;DHT22;38045;52.988;6.536;2023-05-07T12:21:56;19.10;99.90
52034;DHT22;38045;52.988;6.536;2023-05-07T12:24:22;19.00;99.90
52034;DHT22;38045;52.988;6.536;2023-05-07T12:26:48;19.00;99.90
52034;DHT22;38045;52.988;6.536;2023-05-07T12:29:13;19.10;99.90
52034;DHT22;38045;52.988;6.536;2023-05-07T12:31:42;19.20;99.90
52034;DHT22;38045;52.988;6.536;2023-05-07T12:34:10;19.20;99.90
52034;DHT22;38045;52.988;6.536;2023-05-07T12:36:39;19.40;99.90
52034;DHT22;38045;52.988;6.536;2023-05-07T12:39:08;19.30;99.90
52034;DHT22;38045;52.988;6.536;2023-05-07T12:41:56;19.30;99.90
52034;DHT22;38045;52.988;6.536;2023-05-07T12:44:23;19.40;99.90
52034;DHT22;38045;52.988;6.536;2023-05-07T12:46:49;19.80;99.90
52034;DHT22;38045;52.988;6.536;2023-05-07T12:49:15;19.90;99.90
52034;DHT22;38045;52.988;6.536;2023-05-07T12:51:41;19.90;99.90
52034;DHT22;38045;52.988;6.536;2023-05-07T12:54:06;20.00;99.90
52034;DHT22;38045;52.988;6.536;2023-05-07T12:56:35;20.00;99.90
52034;DHT22;38045;52.988;6.536;2023-05-07T12:59:01;20.10;99.90
52034;DHT22;38045;52.988;6.536;2023-05-07T13:01:30;20.00;99.90
52034;DHT22;38045;52.988;6.536;2023-05-07T13:04:03;19.90;99.90
52034;DHT22;38045;52.988;6.536;2023-05-07T13:06:30;19.90;99.90
52034;DHT22;38045;52.988;6.536;2023-05-07T13:08:56;19.70;99.90
52034;DHT22;38045;52.988;6.536;2023-05-07T13:11:22;19.70;99.90
52034;DHT22;38045;52.988;6.536;2023-05-07T13:13:48;19.70;99.90
52034;DHT22;38045;52.988;6.536;2023-05-07T13:16:13;19.90;99.90
52034;DHT22;38045;52.988;6.536;2023-05-07T13:18:40;19.90;99.90
52034;DHT22;38045;52.988;6.536;2023-05-07T13:21:06;20.10;99.90
52034;DHT22;38045;52.988;6.536;2023-05-07T13:23:31;20.10;99.90
52034;DHT22;38045;52.988;6.536;2023-05-07T13:25:57;20.00;99.90
52034;DHT22;38045;52.988;6.536;2023-05-07T13:28:24;20.00;99.90
52034;DHT22;38045;52.988;6.536;2023-05-07T13:30:49;20.00;99.90
52034;DHT22;38045;52.988;6.536;2023-05-07T13:33:17;20.00;99.90
52034;DHT22;38045;52.988;6.536;2023-05-07T13:35:42;19.90;99.90
52034;DHT22;38045;52.988;6.536;2023-05-07T13:38:08;20.00;99.90
52034;DHT22;38045;52.988;6.536;2023-05-07T13:40:34;20.20;99.90
52034;DHT22;38045;52.988;6.536;2023-05-07T13:43:00;20.50;99.90
52034;DHT22;38045;52.988;6.536;2023-05-07T13:45:28;20.80;99.90
52034;DHT22;38045;52.988;6.536;2023-05-07T13:47:55;20.90;99.90
52034;DHT22;38045;52.988;6.536;2023-05-07T13:50:21;20.90;99.90
52034;DHT22;38045;52.988;6.536;2023-05-07T13:52:46;21.10;99.90
52034;DHT22;38045;52.988;6.536;2023-05-07T13:55:20;20.90;99.90
52034;DHT22;38045;52.988;6.536;2023-05-07T13:57:46;20.60;99.90
52034;DHT22;38045;52.988;6.536;2023-05-07T14:00:13;20.30;99.90
52034;DHT22;38045;52.988;6.536;2023-05-07T14:02:39;20.40;99.90
52034;DHT22;38045;52.988;6.536;2023-05-07T14:05:06;20.50;99.90
52034;DHT22;38045;52.988;6.536;2023-05-07T14:07:31;20.40;99.90
52034;DHT22;38045;52.988;6.536;2023-05-07T14:09:57;20.30;99.90
52034;DHT22;38045;52.988;6.536;2023-05-07T14:12:23;20.10;99.90
52034;DHT22;38045;52.988;6.536;2023-05-07T14:14:49;20.00;99.90
52034;DHT22;38045;52.988;6.536;2023-05-07T14:17:16;20.00;99.90
52034;DHT22;38045;52.988;6.536;2023-05-07T14:19:43;20.10;99.90
52034;DHT22;38045;52.988;6.536;2023-05-07T14:22:08;20.10;99.90
52034;DHT22;38045;52.988;6.536;2023-05-07T14:24:34;20.10;99.90
52034;DHT22;38045;52.988;6.536;2023-05-07T14:27:00;20.10;99.90
52034;DHT22;38045;52.988;6.536;2023-05-07T14:29:25;20.10;99.90
52034;DHT22;38045;52.988;6.536;2023-05-07T14:31:51;20.00;99.90
52034;DHT22;38045;52.988;6.536;2023-05-07T14:34:16;19.90;99.90
52034;DHT22;38045;52.988;6.536;2023-05-07T14:36:42;19.80;99.90
52034;DHT22;38045;52.988;6.536;2023-05-07T14:39:09;19.70;99.90
52034;DHT22;38045;52.988;6.536;2023-05-07T14:41:35;19.70;99.90
52034;DHT22;38045;52.988;6.536;2023-05-07T14:44:00;19.70;99.90
52034;DHT22;38045;52.988;6.536;2023-05-07T14:46:27;19.80;99.90
52034;DHT22;38045;52.988;6.536;2023-05-07T14:48:52;19.70;99.90
52034;DHT22;38045;52.988;6.536;2023-05-07T14:51:18;19.80;99.90
52034;DHT22;38045;52.988;6.536;2023-05-07T14:53:44;19.80;99.90
52034;DHT22;38045;52.988;6.536;2023-05-07T14:56:10;19.90;99.90
52034;DHT22;38045;52.988;6.536;2023-05-07T14:58:36;20.00;99.90
52034;DHT22;38045;52.988;6.536;2023-05-07T15:01:02;19.90;99.90
52034;DHT22;38045;52.988;6.536;2023-05-07T15:03:28;19.90;99.90
52034;DHT22;38045;52.988;6.536;2023-05-07T15:05:54;19.70;99.90
52034;DHT22;38045;52.988;6.536;2023-05-07T15:08:20;19.70;99.90
52034;DHT22;38045;52.988;6.536;2023-05-07T15:10:46;19.50;99.90
52034;DHT22;38045;52.988;6.536;2023-05-07T15:13:12;19.50;99.90
52034;DHT22;38045;52.988;6.536;2023-05-07T15:15:41;19.50;99.90
52034;DHT22;38045;52.988;6.536;2023-05-07T15:18:07;19.50;99.90
52034;DHT22;38045;52.988;6.536;2023-05-07T15:20:33;19.50;99.90
52034;DHT22;38045;52.988;6.536;2023-05-07T15:22:59;19.50;99.90
52034;DHT22;38045;52.988;6.536;2023-05-07T15:25:24;19.60;99.90
52034;DHT22;38045;52.988;6.536;2023-05-07T15:27:50;19.60;99.90
52034;DHT22;38045;52.988;6.536;2023-05-07T15:30:16;19.50;99.90
52034;DHT22;38045;52.988;6.536;2023-05-07T15:32:42;19.60;99.90
52034;DHT22;38045;52.988;6.536;2023-05-07T15:35:09;19.80;99.90
52034;DHT22;38045;52.988;6.536;2023-05-07T15:37:34;20.10;99.90